Aérodrome :
LOGIN :

S'inscrire | Disclaimer

   EN    FR    IT 

 










Légende :    VFR   VFR Marginal   IFR   IFR Intensif   IFR Très Intensif
Visi : 
Plafond : 
>= 8 km
>= 3000ft
5 à 8 km
1000 à 3000 ft
1500m à 5 km
500 à 1000 ft
800 à 1500m
200 à 500 ft
< 800m
< 200 ft
Symboles :   Orages  Brouillard  Fortes neiges  Fortes précipitations  Vent > 20 kt
SIGMETs :   Divers  Orages  Givrage  Turbulence  Onde Orograph.  Cendres Volcan.







- Altitude de l'aérodrome : 21 ft
- Code IATA : VST


ESOW - Stockholm Västerås

DERNIER METAR :
  • 181520Z AUTO 21004KT 5000 SG SCT006/// BKN008/// OVC028/// 00/M01 Q1025 RESG

METARs EXPIRÉS :
  • 181450Z AUTO VRB02KT 3900 -SN BKN007/// OVC025/// M00/M01 Q1025
  • 181420Z AUTO VRB02KT 3800 -SN BKN006/// BKN009/// OVC011/// M00/M02 Q1025
  • 181350Z AUTO VRB02KT 2000 -SN SCT006/// BKN013/// BKN028/// M00/M02 Q1025
  • 181320Z AUTO VRB02KT 3600 -SN SCT009/// BKN017/// OVC048/// M00/M02 Q1025
  • 181250Z AUTO VRB03KT 6000 SG FEW007/// OVC055/// M00/M02 Q1025

Prévision TAF périmée.
Pas de NOTAMs connus pour ce terrain.



MET'MAP, la Météo Aéronautique d'un coup d'oeil ! - Copyright ORBIFLY Décembre 2007 - Disclaimer

ORBIFLY MET'MAP TEAM :

Programmation & Développement : Alexandra Zaïnal
Conception & Développement : Baudouin d'Aumeries
Co-Programmation & Développement : Marc-Olivier Méhu
Soutien technique & logistique : Manuel Goepfert

Contact : metmap@orbifly.com




SOURCES & CREDITS :

   NOAA